Maricopa, AZ (85138)

3:38 PM MST on January 27, 2015 (GMT -0700)
Hidden Valley | Change Station
CLOSE
Current Station
Personal Weather Station
Location: Maricopa, AZ
Elevation: 1406 ft
Nearby Weather Stations

Elev 1406 ft 32.93 °N, 112.15 °W | Updated 14 minutes ago

Mostly Cloudy
Mostly Cloudy
67.9 °F
Feels Like 67.9 °F
N
0.0
Wind Variable Wind from ENE

Today
High -- | Low -- °F
--% Chance of Precip.
Yesterday
High -- | Low -- °F
Precip. -- in
7:26 AM 5:55 PM
First Quarter, 58% visible
Pressure 30.16 in
Visibility 10.0 miles
Clouds Mostly Cloudy 8500 ft
Dew Point 56 °F
Humidity 65%
Rainfall 0.00 in
Snow Depth Not available.
UV 1 out of 12
Pollen 4.60 out of 12
Air Quality Not available.
Flu Activity Not available.
METAR KCGZ 272235Z AUTO 00000KT 10SM BKN085 19/11 A3016 RMK AO1

More Conditions Fewer Conditions

Pressure 30.16 in
Visibility 10.0 miles
Clouds Mostly Cloudy 8500 ft
Dew Point 56 °F
Humidity 65%
Rainfall 0.00 in
Snow Depth Not available.
UV 1 out of 12
Pollen 4.60 out of 12
Air Quality Not available.
Flu Activity Not available.
METAR KCGZ 272235Z AUTO 00000KT 10SM BKN085 19/11 A3016 RMK AO1

More Conditions Fewer Conditions

10-Day Weather Forecast

Almanac

Astronomy

Jan. 27, 2015 Rise Set
Actual Time
Civil Twilight
Nautical Twilight
Astronomical Twilight
Moon
Length of Visible Light
Length of Day
Tomorrow will be .
, % of the Moon is Illuminated

Today's Extremes

State Highs State Lows

Community

WunderPhotos

Upload Photos

1,790,952 photos uploaded!

WunderBlogs® & News

Nearby

Air Quality

  Air Quality AQ Index Pollutant
Not available.

Snow Depth

Station Depth Elevation

Earthquake Activity

City Distance Mag. Time & Date
Minimum magnitude displayed is 2.5.

Coastal Water Temperatures

Place Temperature

Nearby Weather Stations